Time;durP1;ratioP1;P1;durP2;ratioP2;P2;SDS_P1;SDS_P2;PMS_P1;PMS_P2;Temp;Humidity;BMP_temperature;BMP_pressure;BME280_temperature;BME280_humidity;BME280_pressure;Samples;Min_cycle;Max_cycle;Signal;HPM_P1;HPM_P2
2021/12/29 00:01:29;;;;;;;25.50;16.07;;;;;;;7.74;100.00;99938.00;5279422;28;20020;-69
2021/12/29 00:04:00;;;;;;;20.80;17.70;;;;;;;7.74;100.00;99937.16;5278200;28;20112;-68
2021/12/29 00:06:32;;;;;;;20.13;15.73;;;;;;;7.75;100.00;99942.31;5278571;28;20024;-69
2021/12/29 00:09:03;;;;;;;17.33;14.90;;;;;;;7.79;100.00;99954.38;5278237;28;20547;-70
2021/12/29 00:11:40;;;;;;;18.63;12.73;;;;;;;7.76;100.00;99946.66;5263547;28;20036;-69
2021/12/29 00:14:11;;;;;;;18.92;14.07;;;;;;;7.77;100.00;99965.66;5256633;28;20075;-69
2021/12/29 00:16:43;;;;;;;17.87;14.73;;;;;;;7.77;100.00;99976.03;5257060;28;20033;-68
2021/12/29 00:19:14;;;;;;;21.93;15.63;;;;;;;7.75;100.00;99975.22;5257021;28;20051;-69
2021/12/29 00:21:46;;;;;;;24.37;14.23;;;;;;;7.74;100.00;99991.63;5256980;28;20044;-68
2021/12/29 00:24:17;;;;;;;21.67;14.33;;;;;;;7.72;100.00;99993.41;5257474;28;20033;-69
2021/12/29 00:26:48;;;;;;;19.20;14.63;;;;;;;7.72;100.00;100007.22;5256917;28;20052;-69
2021/12/29 00:29:20;;;;;;;17.87;15.67;;;;;;;7.72;100.00;100009.81;5255644;28;20075;-70
2021/12/29 00:31:51;;;;;;;19.77;14.83;;;;;;;7.70;100.00;100003.81;5261694;28;20032;-70
2021/12/29 00:34:22;;;;;;;21.73;16.40;;;;;;;7.71;100.00;100012.44;5276801;28;20024;-70
2021/12/29 00:36:54;;;;;;;20.57;15.23;;;;;;;7.69;100.00;100007.25;5257023;28;20083;-70
2021/12/29 00:39:25;;;;;;;20.87;15.73;;;;;;;7.66;100.00;100018.56;5256958;28;20032;-71
2021/12/29 00:41:57;;;;;;;23.57;16.83;;;;;;;7.67;100.00;100024.59;5256854;28;20055;-70
2021/12/29 00:44:30;;;;;;;21.63;15.60;;;;;;;7.67;100.00;100029.78;5257446;28;20051;-71
2021/12/29 00:47:02;;;;;;;24.23;17.48;;;;;;;7.66;100.00;100039.31;5256824;28;20029;-70
2021/12/29 00:49:35;;;;;;;26.23;19.33;;;;;;;7.67;100.00;100032.38;5256757;28;20388;-70
2021/12/29 00:52:08;;;;;;;27.23;17.70;;;;;;;7.67;100.00;100050.53;5256659;28;20037;-70
2021/12/29 00:54:43;;;;;;;24.15;18.48;;;;;;;7.64;100.00;100042.78;5255476;28;20033;-70
2021/12/29 00:57:14;;;;;;;25.25;18.55;;;;;;;7.66;100.00;100046.22;5256540;28;20028;-69
2021/12/29 00:59:45;;;;;;;32.60;20.83;;;;;;;7.64;100.00;100046.22;5256032;28;20047;-70
2021/12/29 01:02:17;;;;;;;26.90;19.07;;;;;;;7.62;100.00;100055.78;5256706;28;20416;-69
2021/12/29 01:04:49;;;;;;;33.83;20.87;;;;;;;7.63;100.00;100061.81;5256585;28;20492;-69
2021/12/29 01:07:20;;;;;;;29.47;22.43;;;;;;;7.63;100.00;100069.59;5254532;28;20037;-69
2021/12/29 01:09:52;;;;;;;29.00;21.10;;;;;;;7.63;100.00;100080.84;5256412;28;20024;-70
2021/12/29 01:12:23;;;;;;;27.37;20.83;;;;;;;7.64;100.00;100076.50;5256466;28;20024;-70
2021/12/29 01:14:56;;;;;;;33.90;21.93;;;;;;;7.62;100.00;100088.66;5255981;28;20037;-69
2021/12/29 01:17:28;;;;;;;30.85;21.92;;;;;;;7.62;100.00;100099.88;5256028;28;20052;-68
2021/12/29 01:19:59;;;;;;;29.90;22.08;;;;;;;7.63;100.00;100104.19;5256018;28;20029;-70
2021/12/29 01:22:31;;;;;;;32.47;22.23;;;;;;;7.62;100.00;100107.66;5256050;28;20033;-71
2021/12/29 01:25:02;;;;;;;28.47;21.77;;;;;;;7.62;100.00;100096.44;5255694;28;20302;-69
2021/12/29 01:27:34;;;;;;;29.83;22.40;;;;;;;7.62;100.00;100122.38;5256048;28;20037;-70
2021/12/29 01:30:10;;;;;;;26.00;21.37;;;;;;;7.62;100.00;100118.03;5256045;28;20064;-70
2021/12/29 01:32:42;;;;;;;30.60;24.38;;;;;;;7.62;100.00;100128.41;5254267;28;20057;-69
2021/12/29 01:35:13;;;;;;;30.05;21.58;;;;;;;7.63;100.00;100139.63;5254934;28;20052;-70
2021/12/29 01:37:45;;;;;;;27.73;22.07;;;;;;;7.63;100.00;100147.41;5255517;28;20028;-69
2021/12/29 01:40:18;;;;;;;35.60;20.17;;;;;;;7.63;100.00;100158.66;5255670;28;20017;-69
2021/12/29 01:42:49;;;;;;;29.63;21.80;;;;;;;7.66;100.00;100160.34;5255815;28;20111;-69
2021/12/29 01:45:21;;;;;;;26.77;21.63;;;;;;;7.65;100.00;100171.63;5256010;28;20089;-69
2021/12/29 01:47:53;;;;;;;22.60;20.20;;;;;;;7.66;100.00;100174.19;5255439;28;20032;-71
2021/12/29 01:50:24;;;;;;;25.33;19.80;;;;;;;7.67;100.00;100175.91;5256021;28;20104;-71
2021/12/29 01:53:01;;;;;;;28.03;18.27;;;;;;;7.66;100.00;100170.72;5255323;28;20026;-69
2021/12/29 01:55:32;;;;;;;25.67;18.92;;;;;;;7.65;100.00;100180.25;5255629;28;20016;-72
2021/12/29 01:58:05;;;;;;;25.03;19.57;;;;;;;7.67;100.00;100186.28;5255383;28;20066;-71
2021/12/29 02:00:37;;;;;;;24.08;19.08;;;;;;;7.69;100.00;100193.19;5255500;28;20032;-72
2021/12/29 02:03:09;;;;;;;27.48;18.42;;;;;;;7.66;100.00;100194.97;5254870;28;20040;-70
2021/12/29 02:05:41;;;;;;;27.13;18.97;;;;;;;7.65;100.00;100194.97;5255135;28;20464;-70
2021/12/29 02:08:20;;;;;;;22.65;19.65;;;;;;;7.65;100.00;100202.75;5253795;28;20577;-71
2021/12/29 02:10:55;;;;;;;23.77;17.95;;;;;;;7.67;100.00;100203.59;5255288;28;20024;-69
2021/12/29 02:13:28;;;;;;;22.83;18.38;;;;;;;7.65;100.00;100195.81;5255255;28;20139;-70
2021/12/29 02:16:00;;;;;;;20.98;17.50;;;;;;;7.64;100.00;100207.06;5254775;28;20104;-70
2021/12/29 02:18:32;;;;;;;24.60;19.30;;;;;;;7.65;100.00;100213.97;5254816;28;20602;-70
2021/12/29 02:21:03;;;;;;;23.40;18.90;;;;;;;7.63;100.00;100215.75;5255351;28;20503;-70
2021/12/29 02:23:46;;;;;;;32.03;18.90;;;;;;;7.62;100.00;100214.00;5255052;28;20021;-71
2021/12/29 02:26:21;;;;;;;27.73;20.85;;;;;;;7.62;100.00;100216.59;5254813;28;20024;-70
2021/12/29 02:28:55;;;;;;;27.70;21.13;;;;;;;7.63;100.00;100220.03;5254781;28;20021;-71
2021/12/29 02:31:28;;;;;;;32.20;21.83;;;;;;;7.61;100.00;100219.22;5255012;28;20111;-72
2021/12/29 02:33:59;;;;;;;27.67;23.10;;;;;;;7.62;100.00;100221.78;5254555;28;20043;-70
2021/12/29 02:36:31;;;;;;;35.10;22.47;;;;;;;7.61;100.00;100212.28;5254508;28;20045;-70
2021/12/29 02:39:04;;;;;;;32.93;21.57;;;;;;;7.58;100.00;100214.03;5255079;28;20114;-70
2021/12/29 02:41:37;;;;;;;29.92;20.92;;;;;;;7.60;100.00;100233.03;5255006;28;20399;-70
2021/12/29 02:44:15;;;;;;;29.55;22.30;;;;;;;7.59;100.00;100227.00;5254615;28;20036;-70
2021/12/29 02:46:46;;;;;;;30.55;20.13;;;;;;;7.59;100.00;100229.59;5254843;28;20393;-70
2021/12/29 02:49:18;;;;;;;29.10;19.77;;;;;;;7.60;100.00;100225.25;5254359;28;20033;-69
2021/12/29 02:51:51;;;;;;;27.63;19.98;;;;;;;7.58;100.00;100222.72;5254886;28;20032;-70
2021/12/29 02:54:22;;;;;;;30.65;20.60;;;;;;;7.57;100.00;100220.97;5254763;28;20396;-71
2021/12/29 02:56:56;;;;;;;27.47;21.23;;;;;;;7.54;100.00;100215.81;5254817;28;20022;-70
2021/12/29 02:59:28;;;;;;;30.08;21.00;;;;;;;7.56;100.00;100229.63;5254261;28;20102;-70
2021/12/29 03:01:59;;;;;;;23.83;19.03;;;;;;;7.56;100.00;100242.59;5254505;28;20025;-69
2021/12/29 03:04:31;;;;;;;28.90;21.23;;;;;;;7.54;100.00;100246.94;5254606;28;20386;-70
2021/12/29 03:07:03;;;;;;;31.13;22.80;;;;;;;7.56;100.00;100242.59;5254740;28;20021;-69
2021/12/29 03:09:34;;;;;;;24.43;19.23;;;;;;;7.54;100.00;100238.31;5254318;28;20029;-70
2021/12/29 03:12:06;;;;;;;26.50;20.87;;;;;;;7.55;100.00;100250.38;5254250;28;20655;-71
2021/12/29 03:14:48;;;;;;;26.03;20.97;;;;;;;7.56;100.00;100271.13;5254998;28;20067;-70
2021/12/29 03:17:20;;;;;;;32.77;21.47;;;;;;;7.55;100.00;100276.31;5254735;28;20021;-70
2021/12/29 03:19:51;;;;;;;32.60;23.37;;;;;;;7.54;100.00;100280.66;5254167;28;20040;-70
2021/12/29 03:22:23;;;;;;;28.87;23.57;;;;;;;7.51;100.00;100264.28;5254283;28;20076;-70
2021/12/29 03:24:54;;;;;;;31.63;22.27;;;;;;;7.53;100.00;100276.34;5254599;28;20121;-70
2021/12/29 03:27:26;;;;;;;30.23;22.67;;;;;;;7.52;100.00;100282.41;5254809;28;20051;-70
2021/12/29 03:29:57;;;;;;;32.13;20.33;;;;;;;7.52;100.00;100287.59;5254510;28;20033;-70
2021/12/29 03:32:40;;;;;;;32.30;22.97;;;;;;;7.49;100.00;100296.25;5258026;28;20495;-70
2021/12/29 03:35:12;;;;;;;34.08;22.45;;;;;;;7.50;100.00;100299.69;5257477;28;20033;-71
2021/12/29 03:37:43;;;;;;;31.90;21.07;;;;;;;7.48;100.00;100297.13;5257852;28;20305;-71
2021/12/29 03:40:15;;;;;;;31.67;21.03;;;;;;;7.46;100.00;100303.22;5258008;28;20511;-71
2021/12/29 03:42:46;;;;;;;27.80;21.23;;;;;;;7.48;100.00;100301.44;5258404;28;20033;-70
2021/12/29 03:45:17;;;;;;;36.10;21.53;;;;;;;7.47;100.00;100304.91;5258169;28;20041;-70
2021/12/29 03:47:49;;;;;;;31.37;20.70;;;;;;;7.46;100.00;100304.06;5258799;28;20091;-70
2021/12/29 03:50:21;;;;;;;26.20;20.60;;;;;;;7.51;100.00;100311.81;5257607;28;20039;-71
2021/12/29 03:52:52;;;;;;;30.07;20.73;;;;;;;7.51;100.00;100313.56;5257431;28;20461;-71
2021/12/29 03:55:24;;;;;;;31.07;20.53;;;;;;;7.47;100.00;100320.47;5257658;28;20041;-70
2021/12/29 03:57:55;;;;;;;25.63;20.47;;;;;;;7.45;100.00;100330.88;5257651;28;20382;-71
2021/12/29 04:00:27;;;;;;;28.30;20.57;;;;;;;7.45;100.00;100332.59;5257844;28;20095;-70
2021/12/29 04:02:58;;;;;;;33.70;21.10;;;;;;;7.45;100.00;100328.28;5257741;28;20065;-71
2021/12/29 04:05:30;;;;;;;30.87;21.97;;;;;;;7.45;100.00;100332.59;5257623;28;20029;-70
2021/12/29 04:08:02;;;;;;;27.00;19.63;;;;;;;7.46;100.00;100336.91;5257766;28;20108;-70
2021/12/29 04:10:33;;;;;;;30.48;21.92;;;;;;;7.44;100.00;100334.34;5257640;28;20029;-71
2021/12/29 04:13:05;;;;;;;34.20;21.57;;;;;;;7.42;100.00;100324.84;5257374;28;20029;-70
2021/12/29 04:15:38;;;;;;;33.10;22.03;;;;;;;7.44;100.00;100336.94;5256114;28;20039;-71
2021/12/29 04:18:15;;;;;;;34.17;21.02;;;;;;;7.45;100.00;100335.19;5289517;28;20020;-70
2021/12/29 04:20:57;;;;;;;29.67;21.50;;;;;;;7.44;100.00;100341.25;5257514;28;20017;-71
2021/12/29 04:23:32;;;;;;;31.35;21.52;;;;;;;7.44;100.00;100339.53;5256690;28;20425;-70
2021/12/29 04:26:07;;;;;;;27.25;21.65;;;;;;;7.45;100.00;100345.56;5257561;28;20057;-71
2021/12/29 04:28:39;;;;;;;27.88;21.42;;;;;;;7.44;100.00;100346.44;5256731;28;20104;-71
2021/12/29 04:31:12;;;;;;;26.80;20.23;;;;;;;7.44;100.00;100349.03;5256802;28;20124;-70
2021/12/29 04:33:43;;;;;;;30.23;21.75;;;;;;;7.43;100.00;100358.53;5256902;28;20339;-71
2021/12/29 04:36:14;;;;;;;29.53;21.60;;;;;;;7.43;100.00;100360.28;5256763;28;20049;-71
2021/12/29 04:38:46;;;;;;;26.67;20.17;;;;;;;7.42;100.00;100367.22;5256770;28;20104;-70
2021/12/29 04:41:17;;;;;;;26.77;21.03;;;;;;;7.43;100.00;100368.06;5256772;28;20116;-71
2021/12/29 04:43:49;;;;;;;26.00;20.07;;;;;;;7.41;100.00;100373.25;5255619;28;20797;-70
2021/12/29 04:46:27;;;;;;;26.87;19.70;;;;;;;7.42;100.00;100377.59;5256501;28;20034;-71
2021/12/29 04:49:01;;;;;;;25.23;20.40;;;;;;;7.45;100.00;100389.66;5256879;28;20499;-70
2021/12/29 04:51:35;;;;;;;32.50;21.10;;;;;;;7.44;100.00;100381.00;5256697;28;20037;-71
2021/12/29 04:54:07;;;;;;;32.90;19.77;;;;;;;7.44;100.00;100393.97;5256205;28;20078;-70
2021/12/29 04:56:38;;;;;;;26.23;19.00;;;;;;;7.43;100.00;100397.44;5256359;28;20025;-70
2021/12/29 04:59:10;;;;;;;26.10;19.60;;;;;;;7.44;100.00;100404.34;5256040;28;20178;-70
2021/12/29 05:01:42;;;;;;;28.30;21.33;;;;;;;7.42;100.00;100400.03;5256629;28;20472;-71
2021/12/29 05:04:31;;;;;;;25.75;19.05;;;;;;;7.44;100.00;100412.13;5256450;28;20543;-70
2021/12/29 05:09:52;;;;;;;26.63;20.30;;;;;;;7.41;100.00;100406.97;5256136;28;20040;-70
2021/12/29 05:12:24;;;;;;;29.87;19.87;;;;;;;7.39;100.00;100400.94;5256311;28;20024;-70
2021/12/29 05:14:55;;;;;;;28.97;21.53;;;;;;;7.37;100.00;100399.22;5256544;28;20107;-71
2021/12/29 05:17:26;;;;;;;32.30;20.60;;;;;;;7.36;100.00;100397.47;5256105;28;20029;-70
2021/12/29 05:19:58;;;;;;;31.60;21.53;;;;;;;7.34;100.00;100396.63;5256202;28;20491;-70
2021/12/29 05:22:29;;;;;;;35.40;22.03;;;;;;;7.32;100.00;100399.22;5255968;28;20029;-70
2021/12/29 05:25:00;;;;;;;30.27;20.23;;;;;;;7.30;100.00;100399.25;5255754;28;20035;-70
2021/12/29 05:27:32;;;;;;;31.17;19.33;;;;;;;7.30;100.00;100404.44;5255815;28;20473;-70
2021/12/29 05:30:04;;;;;;;30.17;20.40;;;;;;;7.29;100.00;100401.84;5256075;28;20136;-70
2021/12/29 05:32:35;;;;;;;30.15;20.27;;;;;;;7.28;100.00;100415.69;5255918;28;20051;-71
2021/12/29 05:35:07;;;;;;;31.50;20.37;;;;;;;7.29;100.00;100412.22;5256144;28;20120;-71
2021/12/29 05:37:39;;;;;;;32.20;19.27;;;;;;;7.27;100.00;100417.41;5255503;28;20454;-70
2021/12/29 05:40:12;;;;;;;30.70;21.00;;;;;;;7.26;100.00;100420.88;5255635;28;20117;-70
2021/12/29 05:42:43;;;;;;;;;;;;;;;7.26;100.00;100423.47;5256313;28;20074;-70
2021/12/29 05:45:15;;;;;;;25.67;17.75;;;;;;;7.27;100.00;100425.19;5256129;28;20341;-70
2021/12/29 05:47:47;;;;;;;29.73;19.88;;;;;;;7.28;100.00;100428.66;5255207;28;20659;-70
2021/12/29 05:50:21;;;;;;;31.17;20.33;;;;;;;7.25;100.00;100426.94;5255984;28;20025;-70
2021/12/29 05:52:54;;;;;;;34.08;19.13;;;;;;;7.26;100.00;100426.06;5255129;28;20365;-70
2021/12/29 05:55:26;;;;;;;26.55;18.33;;;;;;;7.28;100.00;100424.31;5254962;28;20032;-69
2021/12/29 05:57:58;;;;;;;26.08;18.10;;;;;;;7.24;100.00;100417.41;5255071;28;20068;-70
2021/12/29 06:00:29;;;;;;;27.70;18.40;;;;;;;7.25;100.00;100432.13;5255507;28;20111;-70
2021/12/29 06:03:00;;;;;;;26.13;17.63;;;;;;;7.24;100.00;100425.19;5255795;28;20036;-70
2021/12/29 06:05:32;;;;;;;31.63;17.70;;;;;;;7.25;100.00;100426.06;5253870;28;20265;-70
2021/12/29 06:08:05;;;;;;;28.87;16.53;;;;;;;7.24;100.00;100427.78;5254954;28;20380;-71
2021/12/29 06:10:37;;;;;;;26.00;16.48;;;;;;;7.25;100.00;100429.53;5255141;28;20029;-71
2021/12/29 06:13:08;;;;;;;24.97;16.53;;;;;;;7.23;100.00;100448.53;5255034;28;20081;-70
2021/12/29 06:15:40;;;;;;;23.27;16.47;;;;;;;7.23;100.00;100444.22;5255064;28;20258;-70
2021/12/29 06:18:11;;;;;;;23.60;16.43;;;;;;;7.24;100.00;100445.09;5255375;28;20544;-71
2021/12/29 06:20:42;;;;;;;27.57;16.77;;;;;;;7.24;100.00;100453.72;5255361;28;20053;-70
2021/12/29 06:23:14;;;;;;;28.00;16.43;;;;;;;7.23;100.00;100466.69;5255157;28;20083;-70
2021/12/29 06:25:50;;;;;;;26.15;16.38;;;;;;;7.21;100.00;100463.25;5255543;28;20080;-70
2021/12/29 06:28:21;;;;;;;23.73;15.77;;;;;;;7.21;100.00;100460.66;5254901;28;20167;-70
2021/12/29 06:30:53;;;;;;;26.00;15.67;;;;;;;7.19;100.00;100463.25;5255205;28;20372;-71
2021/12/29 06:33:24;;;;;;;29.27;15.23;;;;;;;7.21;100.00;100465.84;5287297;28;20057;-70
2021/12/29 06:35:55;;;;;;;24.87;14.97;;;;;;;7.21;100.00;100469.31;5254565;28;20049;-72
2021/12/29 06:38:27;;;;;;;22.83;15.03;;;;;;;7.23;100.00;100472.75;5254912;28;20029;-71
2021/12/29 06:40:58;;;;;;;24.97;15.13;;;;;;;7.23;100.00;100467.56;5254865;28;20114;-71
2021/12/29 06:43:30;;;;;;;24.53;13.53;;;;;;;7.24;100.00;100477.03;5254674;28;20036;-71
2021/12/29 06:46:01;;;;;;;25.13;13.57;;;;;;;7.23;100.00;100477.94;5254825;28;20032;-70
2021/12/29 06:48:32;;;;;;;26.13;13.60;;;;;;;7.25;100.00;100481.38;5254702;28;20177;-70
2021/12/29 06:51:04;;;;;;;25.80;13.90;;;;;;;7.23;100.00;100483.13;5254756;28;20142;-71
2021/12/29 06:53:35;;;;;;;24.93;13.37;;;;;;;7.24;100.00;100489.16;5254728;28;20484;-71
2021/12/29 06:56:07;;;;;;;25.70;15.37;;;;;;;7.23;100.00;100488.31;5254958;28;20104;-70
2021/12/29 06:58:38;;;;;;;26.07;14.33;;;;;;;7.21;100.00;100491.75;5254608;28;20036;-71
2021/12/29 07:01:11;;;;;;;20.83;13.17;;;;;;;7.23;100.00;100483.13;5254525;28;20060;-69
2021/12/29 07:03:42;;;;;;;;;;;;;;;7.24;100.00;100482.22;5255502;28;20072;-70
2021/12/29 07:06:14;;;;;;;24.65;14.00;;;;;;;7.22;100.00;100480.53;5256825;28;19916;-71
2021/12/29 07:08:45;;;;;;;22.67;13.70;;;;;;;7.23;100.00;100488.31;5260009;28;20098;-70
2021/12/29 07:11:17;;;;;;;19.33;13.83;;;;;;;7.21;100.00;100492.63;5258966;28;20247;-71
2021/12/29 07:13:49;;;;;;;23.43;14.53;;;;;;;7.22;100.00;100496.94;5258770;28;20116;-71
2021/12/29 07:16:20;;;;;;;23.20;13.65;;;;;;;7.24;100.00;100513.34;5258609;28;20041;-70
2021/12/29 07:18:52;;;;;;;22.53;13.50;;;;;;;7.23;100.00;100513.34;5258686;28;20108;-71
2021/12/29 07:21:23;;;;;;;25.37;14.10;;;;;;;7.24;100.00;100510.75;5258756;28;20506;-71
2021/12/29 07:23:55;;;;;;;22.63;13.27;;;;;;;7.24;100.00;100513.34;5258562;28;20029;-71
2021/12/29 07:26:27;;;;;;;18.70;13.47;;;;;;;7.26;100.00;100510.75;5258386;28;20043;-71
2021/12/29 07:28:59;;;;;;;16.77;13.80;;;;;;;7.25;100.00;100533.22;5258349;28;20025;-70
2021/12/29 07:31:31;;;;;;;20.25;12.05;;;;;;;7.24;100.00;100534.06;5258308;28;20090;-70
2021/12/29 07:34:03;;;;;;;23.13;12.70;;;;;;;7.25;100.00;100533.22;5258192;28;20043;-69
2021/12/29 07:36:35;;;;;;;24.20;14.07;;;;;;;7.25;100.00;100542.75;5257848;28;20045;-71
2021/12/29 07:39:11;;;;;;;20.70;12.00;;;;;;;7.25;100.00;100546.19;5258371;28;20471;-70
2021/12/29 07:41:43;;;;;;;21.42;12.05;;;;;;;7.24;100.00;100551.38;5258159;28;20440;-70
2021/12/29 07:44:16;;;;;;;22.07;11.97;;;;;;;7.25;100.00;100548.78;5256655;28;20058;-69
2021/12/29 07:46:52;;;;;;;29.15;12.38;;;;;;;7.25;100.00;100551.38;5257705;28;20344;-69
2021/12/29 07:49:23;;;;;;;20.42;12.70;;;;;;;7.24;100.00;100543.59;5257866;28;20041;-70
2021/12/29 07:51:55;;;;;;;21.07;12.33;;;;;;;7.26;100.00;100534.06;5258097;28;20037;-69
2021/12/29 07:54:27;;;;;;;21.87;11.40;;;;;;;7.25;100.00;100542.75;5257957;28;20090;-69
2021/12/29 07:56:58;;;;;;;22.27;11.07;;;;;;;7.25;100.00;100541.00;5290290;28;20029;-69
2021/12/29 07:59:30;;;;;;;14.63;10.70;;;;;;;7.24;100.00;100531.47;5257775;28;20055;-70
2021/12/29 08:02:02;;;;;;;17.17;11.33;;;;;;;7.26;100.00;100534.06;5257178;28;20468;-70
2021/12/29 08:04:33;;;;;;;17.10;10.87;;;;;;;7.27;100.00;100541.84;5276958;28;20039;-68
2021/12/29 08:07:04;;;;;;;20.73;11.47;;;;;;;7.24;100.00;100539.25;5278014;28;20078;-68
2021/12/29 08:09:36;;;;;;;17.83;10.77;;;;;;;7.28;100.00;100540.13;5278736;28;20036;-68
2021/12/29 08:12:08;;;;;;;20.77;11.43;;;;;;;7.27;100.00;100541.00;5278388;28;20107;-69
2021/12/29 08:14:40;;;;;;;18.45;11.88;;;;;;;7.30;100.00;100557.41;5276842;28;20048;-69
2021/12/29 08:17:11;;;;;;;17.07;10.70;;;;;;;7.31;100.00;100550.50;5279945;28;20081;-70
2021/12/29 08:19:43;;;;;;;18.83;10.55;;;;;;;7.29;100.00;100547.91;5280835;28;20060;-69
2021/12/29 08:22:15;;;;;;;17.67;11.03;;;;;;;7.32;100.00;100546.16;5278047;28;20107;-69
2021/12/29 08:24:46;;;;;;;17.77;10.90;;;;;;;7.34;100.00;100547.91;5277700;28;20043;-69
2021/12/29 08:27:17;;;;;;;15.63;11.50;;;;;;;7.34;100.00;100552.22;5277318;28;20040;-70
2021/12/29 08:29:49;;;;;;;15.77;10.53;;;;;;;7.36;100.00;100548.75;5277457;28;20028;-69
2021/12/29 08:32:20;;;;;;;18.07;12.93;;;;;;;7.36;100.00;100550.47;5277554;28;20031;-69
2021/12/29 08:34:52;;;;;;;18.87;13.50;;;;;;;7.34;100.00;100558.28;5277469;28;20032;-69
2021/12/29 08:37:24;;;;;;;18.85;11.82;;;;;;;7.35;100.00;100554.78;5276095;28;20052;-69
2021/12/29 08:39:55;;;;;;;22.17;13.20;;;;;;;7.37;100.00;100554.78;5277854;28;20087;-68
2021/12/29 08:42:27;;;;;;;18.13;12.33;;;;;;;7.39;100.00;100548.75;5277550;28;20250;-69
2021/12/29 08:44:58;;;;;;;20.43;13.27;;;;;;;7.40;100.00;100544.41;5277115;28;20033;-70
2021/12/29 08:47:31;;;;;;;19.50;14.90;;;;;;;7.42;100.00;100545.25;5272597;28;20029;-70
2021/12/29 08:50:03;;;;;;;;;;;;;;;7.49;100.00;100557.34;5277764;28;20061;-70
2021/12/29 08:52:35;;;;;;;17.33;13.97;;;;;;;7.44;100.00;100554.78;5310026;28;19923;-71
2021/12/29 08:55:09;;;;;;;19.77;12.97;;;;;;;7.48;100.00;100551.28;5277355;28;20653;-71
2021/12/29 08:57:42;;;;;;;14.73;12.88;;;;;;;7.51;100.00;100549.56;5276077;28;20034;-70
2021/12/29 09:00:16;;;;;;;16.67;12.73;;;;;;;7.52;100.00;100562.53;5274527;28;20083;-71
2021/12/29 09:02:48;;;;;;;16.42;12.90;;;;;;;7.52;100.00;100559.94;5277609;28;20586;-70
2021/12/29 09:05:20;;;;;;;15.50;11.82;;;;;;;7.53;100.00;100561.66;5277178;28;20060;-70
2021/12/29 09:07:51;;;;;;;16.23;12.23;;;;;;;7.54;100.00;100557.34;5275003;28;20029;-70
2021/12/29 09:10:23;;;;;;;14.70;11.93;;;;;;;7.57;100.00;100555.59;5276863;28;20028;-70
2021/12/29 09:12:55;;;;;;;13.50;11.20;;;;;;;7.60;100.00;100552.97;5276371;28;20024;-70
2021/12/29 09:15:27;;;;;;;15.43;12.93;;;;;;;7.61;100.00;100559.88;5275482;28;20028;-70
2021/12/29 09:18:01;;;;;;;15.70;11.73;;;;;;;7.65;100.00;100558.16;5275890;28;20035;-69
2021/12/29 09:20:36;;;;;;;17.27;12.50;;;;;;;7.67;100.00;100552.06;5276034;28;20058;-69
2021/12/29 09:23:08;;;;;;;12.95;11.52;;;;;;;7.72;100.00;100548.59;5276343;28;20210;-70
2021/12/29 09:25:43;;;;;;;16.88;11.45;;;;;;;7.77;100.00;100545.09;5276398;28;20034;-69
2021/12/29 09:28:17;;;;;;;13.55;11.35;;;;;;;7.82;100.00;100548.56;5275838;28;20029;-69
2021/12/29 09:30:50;;;;;;;11.70;10.50;;;;;;;7.96;100.00;100540.69;5277007;28;20039;-68
2021/12/29 09:33:22;;;;;;;14.55;11.25;;;;;;;8.10;100.00;100537.13;5282248;28;20498;-69
2021/12/29 09:35:57;;;;;;;15.13;11.33;;;;;;;8.26;100.00;100545.69;5276260;28;20044;-70
2021/12/29 09:38:32;;;;;;;15.40;10.88;;;;;;;8.28;99.68;100538.75;5276205;28;20037;-69
2021/12/29 09:41:05;;;;;;;17.92;10.70;;;;;;;8.30;98.98;100548.25;5276655;28;20443;-70
2021/12/29 09:43:38;;;;;;;13.73;9.82;;;;;;;8.33;97.91;100540.44;5275025;28;20032;-70
2021/12/29 09:46:10;;;;;;;12.13;8.77;;;;;;;8.50;97.99;100544.66;5273362;28;20124;-70
2021/12/29 09:48:41;;;;;;;12.00;9.27;;;;;;;8.71;97.84;100541.00;5276207;28;20103;-70
2021/12/29 09:51:14;;;;;;;11.80;8.57;;;;;;;8.83;95.60;100540.06;5275952;28;20034;-70
2021/12/29 09:53:46;;;;;;;13.07;9.38;;;;;;;8.79;95.74;100533.16;5274807;28;20487;-70
2021/12/29 09:56:18;;;;;;;10.90;7.83;;;;;;;8.72;96.04;100524.56;5276417;28;20029;-71
2021/12/29 09:58:50;;;;;;;10.43;7.57;;;;;;;8.64;96.95;100522.03;5276334;28;20024;-69
2021/12/29 10:01:22;;;;;;;13.30;8.15;;;;;;;8.57;96.02;100525.56;5276237;28;20337;-70
2021/12/29 10:03:53;;;;;;;11.93;7.87;;;;;;;8.60;96.11;100525.53;5275991;28;20031;-69
2021/12/29 10:06:25;;;;;;;13.37;7.40;;;;;;;8.64;96.89;100527.22;5275641;28;20100;-69
2021/12/29 10:08:56;;;;;;;14.03;7.97;;;;;;;8.69;96.50;100535.81;5275792;28;20530;-69
2021/12/29 10:11:31;;;;;;;11.13;7.00;;;;;;;8.84;95.89;100545.25;5275600;28;20032;-69
2021/12/29 10:14:07;;;;;;;14.07;7.13;;;;;;;8.96;95.31;100543.41;5275456;28;20028;-70
2021/12/29 10:16:40;;;;;;;12.80;7.30;;;;;;;8.96;94.57;100538.19;5275915;28;20123;-70
2021/12/29 10:19:13;;;;;;;12.40;7.60;;;;;;;9.02;94.58;100543.34;5272870;28;20055;-69
2021/12/29 10:21:47;;;;;;;9.60;6.22;;;;;;;8.98;94.20;100537.28;5277200;28;20025;-69
2021/12/29 10:24:19;;;;;;;11.52;6.10;;;;;;;8.94;94.41;100530.41;5275604;28;20024;-70
2021/12/29 10:26:56;;;;;;;13.33;6.30;;;;;;;8.95;94.26;100524.31;5275577;28;20028;-70
2021/12/29 10:29:27;;;;;;;9.02;5.15;;;;;;;8.83;94.26;100516.66;5275498;28;20027;-70
2021/12/29 10:32:04;;;;;;;12.00;5.70;;;;;;;8.79;94.90;100514.97;5275814;28;20417;-69
2021/12/29 10:34:35;;;;;;;10.95;6.10;;;;;;;8.76;95.27;100506.31;5275429;28;20115;-69
2021/12/29 10:37:09;;;;;;;15.60;6.33;;;;;;;8.80;95.94;100490.69;5275119;28;20456;-70
2021/12/29 10:39:44;;;;;;;11.95;6.07;;;;;;;8.71;95.49;100502.91;5275400;28;20089;-69
2021/12/29 10:42:21;;;;;;;11.82;5.75;;;;;;;8.61;95.96;100496.06;5279171;28;20024;-69
2021/12/29 10:44:59;;;;;;;11.20;5.47;;;;;;;8.61;95.97;100506.47;5278419;28;20061;-69
2021/12/29 10:47:34;;;;;;;11.65;4.95;;;;;;;8.70;95.92;100498.59;5279787;28;20089;-70
2021/12/29 10:52:45;;;;;;;15.38;6.07;;;;;;;8.77;96.11;100501.97;5543882;22;20052;-71
2021/12/29 10:56:56;;;;;;;12.00;5.63;;;;;;;8.71;95.90;100497.72;5286891;27;2093174;-70
2021/12/29 10:59:31;;;;;;;16.52;5.88;;;;;;;8.71;96.37;100502.03;5336940;28;20111;-69
2021/12/29 11:02:04;;;;;;;8.65;5.28;;;;;;;8.69;96.85;100506.41;5337061;28;20027;-69
2021/12/29 11:04:36;;;;;;;12.30;5.07;;;;;;;8.68;97.03;100523.72;5336577;28;20112;-69
2021/12/29 11:07:10;;;;;;;15.63;5.57;;;;;;;8.63;96.80;100524.63;5337028;28;20062;-70
2021/12/29 11:09:41;;;;;;;12.77;5.45;;;;;;;8.59;96.88;100529.00;5336734;28;20064;-68
2021/12/29 11:12:15;;;;;;;15.50;5.40;;;;;;;8.57;97.37;100513.44;5337268;28;20393;-70
2021/12/29 11:14:52;;;;;;;12.95;5.65;;;;;;;8.54;97.52;100515.19;5336735;28;20039;-70
2021/12/29 11:17:26;;;;;;;12.95;5.40;;;;;;;8.52;97.89;100510.00;5336811;28;20023;-70
2021/12/29 11:19:59;;;;;;;12.52;5.45;;;;;;;8.47;97.23;100521.31;5338414;28;20411;-70
2021/12/29 11:22:30;;;;;;;12.13;5.25;;;;;;;8.49;97.69;100524.78;5344782;28;20028;-70
2021/12/29 11:25:04;;;;;;;20.60;5.60;;;;;;;8.48;98.23;100500.50;5344403;28;20011;-70
2021/12/29 11:27:35;;;;;;;15.05;5.68;;;;;;;8.47;97.97;100506.59;5344257;28;20020;-71
2021/12/29 11:30:11;;;;;;;17.03;5.50;;;;;;;8.43;98.96;100504.00;5344034;28;20032;-70
2021/12/29 11:32:45;;;;;;;13.10;5.78;;;;;;;8.40;99.27;100479.78;5335148;28;20028;-71
2021/12/29 11:35:20;;;;;;;18.92;6.10;;;;;;;8.37;100.00;100468.53;5337221;28;20073;-77
2021/12/29 11:37:57;;;;;;;22.05;6.38;;;;;;;8.38;100.00;100470.28;5344904;28;20037;-75
2021/12/29 11:40:32;;;;;;;20.88;7.53;;;;;;;8.35;100.00;100478.94;5326850;28;20028;-75
2021/12/29 11:43:03;;;;;;;18.45;7.22;;;;;;;8.33;100.00;100482.44;5325807;28;20059;-76